sensor_id;sensor_type;location;lat;lon;timestamp;temperature;humidity
59007;DHT22;44792;52.760;6.726;2022-09-21T00:02:14;9.70;99.90
59007;DHT22;44792;52.760;6.726;2022-09-21T00:04:39;9.70;99.90
59007;DHT22;44792;52.760;6.726;2022-09-21T00:07:05;9.70;99.90
59007;DHT22;44792;52.760;6.726;2022-09-21T00:09:30;9.60;99.90
59007;DHT22;44792;52.760;6.726;2022-09-21T00:11:56;9.60;99.90
59007;DHT22;44792;52.760;6.726;2022-09-21T00:14:21;9.60;99.90
59007;DHT22;44792;52.760;6.726;2022-09-21T00:16:47;9.70;99.90
59007;DHT22;44792;52.760;6.726;2022-09-21T00:19:12;9.60;99.90
59007;DHT22;44792;52.760;6.726;2022-09-21T00:21:38;9.60;99.90
59007;DHT22;44792;52.760;6.726;2022-09-21T00:24:05;9.60;99.90
59007;DHT22;44792;52.760;6.726;2022-09-21T00:26:31;9.50;99.90
59007;DHT22;44792;52.760;6.726;2022-09-21T00:28:59;9.50;99.90
59007;DHT22;44792;52.760;6.726;2022-09-21T00:31:27;9.50;99.90
59007;DHT22;44792;52.760;6.726;2022-09-21T00:33:53;9.50;99.90
59007;DHT22;44792;52.760;6.726;2022-09-21T00:36:22;9.40;99.90
59007;DHT22;44792;52.760;6.726;2022-09-21T00:38:50;9.40;99.90
59007;DHT22;44792;52.760;6.726;2022-09-21T00:41:17;9.40;99.90
59007;DHT22;44792;52.760;6.726;2022-09-21T00:43:47;9.40;99.90
59007;DHT22;44792;52.760;6.726;2022-09-21T00:46:36;9.40;99.90
59007;DHT22;44792;52.760;6.726;2022-09-21T00:49:02;9.40;99.90
59007;DHT22;44792;52.760;6.726;2022-09-21T00:51:28;9.30;99.90
59007;DHT22;44792;52.760;6.726;2022-09-21T00:53:59;9.20;99.90
59007;DHT22;44792;52.760;6.726;2022-09-21T00:56:26;9.20;99.90
59007;DHT22;44792;52.760;6.726;2022-09-21T00:58:53;9.30;99.90
59007;DHT22;44792;52.760;6.726;2022-09-21T01:01:19;9.20;99.90
59007;DHT22;44792;52.760;6.726;2022-09-21T01:03:45;9.20;99.90
59007;DHT22;44792;52.760;6.726;2022-09-21T01:06:12;9.20;99.90
59007;DHT22;44792;52.760;6.726;2022-09-21T01:08:39;9.20;99.90
59007;DHT22;44792;52.760;6.726;2022-09-21T01:11:46;9.10;99.90
59007;DHT22;44792;52.760;6.726;2022-09-21T01:14:37;9.10;99.90
59007;DHT22;44792;52.760;6.726;2022-09-21T01:17:29;9.10;99.90
59007;DHT22;44792;52.760;6.726;2022-09-21T01:20:24;9.10;99.90
59007;DHT22;44792;52.760;6.726;2022-09-21T01:28:25;9.00;99.90
59007;DHT22;44792;52.760;6.726;2022-09-21T01:30:57;9.00;99.90
59007;DHT22;44792;52.760;6.726;2022-09-21T01:33:27;9.00;99.90
59007;DHT22;44792;52.760;6.726;2022-09-21T01:35:58;9.00;99.90
59007;DHT22;44792;52.760;6.726;2022-09-21T01:38:29;9.00;99.90
59007;DHT22;44792;52.760;6.726;2022-09-21T01:41:01;9.00;99.90
59007;DHT22;44792;52.760;6.726;2022-09-21T01:43:34;9.00;99.90
59007;DHT22;44792;52.760;6.726;2022-09-21T01:46:02;8.90;99.90
59007;DHT22;44792;52.760;6.726;2022-09-21T01:48:35;8.90;99.90
59007;DHT22;44792;52.760;6.726;2022-09-21T01:51:05;8.90;99.90
59007;DHT22;44792;52.760;6.726;2022-09-21T01:53:50;8.90;99.90
59007;DHT22;44792;52.760;6.726;2022-09-21T01:56:26;8.80;99.90
59007;DHT22;44792;52.760;6.726;2022-09-21T01:59:07;8.80;99.90
59007;DHT22;44792;52.760;6.726;2022-09-21T02:01:42;8.80;99.90
59007;DHT22;44792;52.760;6.726;2022-09-21T02:04:11;8.70;99.90
59007;DHT22;44792;52.760;6.726;2022-09-21T02:06:41;8.70;99.90
59007;DHT22;44792;52.760;6.726;2022-09-21T02:09:08;8.70;99.90
59007;DHT22;44792;52.760;6.726;2022-09-21T02:11:35;8.70;99.90
59007;DHT22;44792;52.760;6.726;2022-09-21T02:14:09;8.60;99.90
59007;DHT22;44792;52.760;6.726;2022-09-21T02:16:38;8.60;99.90
59007;DHT22;44792;52.760;6.726;2022-09-21T02:19:16;8.60;99.90
59007;DHT22;44792;52.760;6.726;2022-09-21T02:22:06;8.60;99.90
59007;DHT22;44792;52.760;6.726;2022-09-21T02:24:46;8.50;99.90
59007;DHT22;44792;52.760;6.726;2022-09-21T02:27:30;8.40;99.90
59007;DHT22;44792;52.760;6.726;2022-09-21T02:30:14;8.50;99.90
59007;DHT22;44792;52.760;6.726;2022-09-21T02:32:56;8.50;99.90
59007;DHT22;44792;52.760;6.726;2022-09-21T02:35:53;8.50;99.90
59007;DHT22;44792;52.760;6.726;2022-09-21T02:38:34;8.50;99.90
59007;DHT22;44792;52.760;6.726;2022-09-21T02:41:19;8.50;99.90
59007;DHT22;44792;52.760;6.726;2022-09-21T02:43:51;8.40;99.90
59007;DHT22;44792;52.760;6.726;2022-09-21T02:48:59;8.40;99.90
59007;DHT22;44792;52.760;6.726;2022-09-21T02:51:32;8.40;99.90
59007;DHT22;44792;52.760;6.726;2022-09-21T02:54:02;8.40;99.90
59007;DHT22;44792;52.760;6.726;2022-09-21T02:56:30;8.40;99.90
59007;DHT22;44792;52.760;6.726;2022-09-21T02:58:59;8.40;99.90
59007;DHT22;44792;52.760;6.726;2022-09-21T03:01:26;8.40;99.90
59007;DHT22;44792;52.760;6.726;2022-09-21T03:03:53;8.30;99.90
59007;DHT22;44792;52.760;6.726;2022-09-21T03:06:18;8.30;99.90
59007;DHT22;44792;52.760;6.726;2022-09-21T03:08:45;8.30;99.90
59007;DHT22;44792;52.760;6.726;2022-09-21T03:11:10;8.30;99.90
59007;DHT22;44792;52.760;6.726;2022-09-21T03:13:40;8.30;99.90
59007;DHT22;44792;52.760;6.726;2022-09-21T03:16:06;8.20;99.90
59007;DHT22;44792;52.760;6.726;2022-09-21T03:18:32;8.20;99.90
59007;DHT22;44792;52.760;6.726;2022-09-21T03:20:59;8.20;99.90
59007;DHT22;44792;52.760;6.726;2022-09-21T03:23:26;8.10;99.90
59007;DHT22;44792;52.760;6.726;2022-09-21T03:25:52;8.20;99.90
59007;DHT22;44792;52.760;6.726;2022-09-21T03:28:20;8.10;99.90
59007;DHT22;44792;52.760;6.726;2022-09-21T03:30:48;8.10;99.90
59007;DHT22;44792;52.760;6.726;2022-09-21T03:33:13;8.10;99.90
59007;DHT22;44792;52.760;6.726;2022-09-21T03:35:39;8.00;99.90
59007;DHT22;44792;52.760;6.726;2022-09-21T03:38:05;8.00;99.90
59007;DHT22;44792;52.760;6.726;2022-09-21T03:40:31;8.00;99.90
59007;DHT22;44792;52.760;6.726;2022-09-21T03:42:57;8.00;99.90
59007;DHT22;44792;52.760;6.726;2022-09-21T03:45:22;8.00;99.90
59007;DHT22;44792;52.760;6.726;2022-09-21T03:47:49;7.90;99.90
59007;DHT22;44792;52.760;6.726;2022-09-21T03:50:15;7.80;99.90
59007;DHT22;44792;52.760;6.726;2022-09-21T03:52:40;7.80;99.90
59007;DHT22;44792;52.760;6.726;2022-09-21T03:55:07;7.90;99.90
59007;DHT22;44792;52.760;6.726;2022-09-21T03:57:34;8.00;99.90
59007;DHT22;44792;52.760;6.726;2022-09-21T04:00:02;7.80;99.90
59007;DHT22;44792;52.760;6.726;2022-09-21T04:02:28;7.80;99.90
59007;DHT22;44792;52.760;6.726;2022-09-21T04:04:54;7.80;99.90
59007;DHT22;44792;52.760;6.726;2022-09-21T04:07:20;7.70;99.90
59007;DHT22;44792;52.760;6.726;2022-09-21T04:09:46;7.70;99.90
59007;DHT22;44792;52.760;6.726;2022-09-21T04:12:11;7.70;99.90
59007;DHT22;44792;52.760;6.726;2022-09-21T04:14:37;7.70;99.90
59007;DHT22;44792;52.760;6.726;2022-09-21T04:17:03;7.70;99.90
59007;DHT22;44792;52.760;6.726;2022-09-21T04:19:28;7.70;99.90
59007;DHT22;44792;52.760;6.726;2022-09-21T04:21:54;7.70;99.90
59007;DHT22;44792;52.760;6.726;2022-09-21T04:24:21;7.70;99.90
59007;DHT22;44792;52.760;6.726;2022-09-21T04:26:47;7.70;99.90
59007;DHT22;44792;52.760;6.726;2022-09-21T04:29:13;7.70;99.90
59007;DHT22;44792;52.760;6.726;2022-09-21T04:31:39;7.70;99.90
59007;DHT22;44792;52.760;6.726;2022-09-21T04:34:05;7.70;99.90
59007;DHT22;44792;52.760;6.726;2022-09-21T04:36:30;7.70;99.90
59007;DHT22;44792;52.760;6.726;2022-09-21T04:38:59;7.70;99.90
59007;DHT22;44792;52.760;6.726;2022-09-21T04:41:25;7.70;99.90
59007;DHT22;44792;52.760;6.726;2022-09-21T04:43:51;7.60;99.90
59007;DHT22;44792;52.760;6.726;2022-09-21T04:46:18;7.60;99.90
59007;DHT22;44792;52.760;6.726;2022-09-21T04:48:44;7.50;99.90
59007;DHT22;44792;52.760;6.726;2022-09-21T04:51:10;7.60;99.90
59007;DHT22;44792;52.760;6.726;2022-09-21T04:53:37;7.70;99.90
59007;DHT22;44792;52.760;6.726;2022-09-21T04:56:04;7.60;99.90
59007;DHT22;44792;52.760;6.726;2022-09-21T04:58:30;7.60;99.90
59007;DHT22;44792;52.760;6.726;2022-09-21T05:00:56;7.40;99.90
59007;DHT22;44792;52.760;6.726;2022-09-21T05:03:23;7.40;99.90
59007;DHT22;44792;52.760;6.726;2022-09-21T05:05:51;7.40;99.90
59007;DHT22;44792;52.760;6.726;2022-09-21T05:08:18;7.50;99.90
59007;DHT22;44792;52.760;6.726;2022-09-21T05:11:02;7.50;99.90
59007;DHT22;44792;52.760;6.726;2022-09-21T05:13:27;7.50;99.90
59007;DHT22;44792;52.760;6.726;2022-09-21T05:15:53;7.40;99.90
59007;DHT22;44792;52.760;6.726;2022-09-21T05:18:18;7.40;99.90
59007;DHT22;44792;52.760;6.726;2022-09-21T05:20:44;7.40;99.90
59007;DHT22;44792;52.760;6.726;2022-09-21T05:23:09;7.30;99.90
59007;DHT22;44792;52.760;6.726;2022-09-21T05:25:35;7.20;99.90
59007;DHT22;44792;52.760;6.726;2022-09-21T05:28:01;7.20;99.90
59007;DHT22;44792;52.760;6.726;2022-09-21T05:30:26;7.20;99.90
59007;DHT22;44792;52.760;6.726;2022-09-21T05:33:00;7.20;99.90
59007;DHT22;44792;52.760;6.726;2022-09-21T05:38:08;7.30;99.90
59007;DHT22;44792;52.760;6.726;2022-09-21T05:40:37;7.30;99.90
59007;DHT22;44792;52.760;6.726;2022-09-21T05:43:03;7.30;99.90
59007;DHT22;44792;52.760;6.726;2022-09-21T05:45:28;7.30;99.90
59007;DHT22;44792;52.760;6.726;2022-09-21T05:48:08;7.20;99.90
59007;DHT22;44792;52.760;6.726;2022-09-21T05:50:47;7.20;99.90
59007;DHT22;44792;52.760;6.726;2022-09-21T05:53:33;7.20;99.90
59007;DHT22;44792;52.760;6.726;2022-09-21T05:56:23;7.30;99.90
59007;DHT22;44792;52.760;6.726;2022-09-21T06:02:03;7.30;99.90
59007;DHT22;44792;52.760;6.726;2022-09-21T06:04:31;7.40;99.90
59007;DHT22;44792;52.760;6.726;2022-09-21T06:06:57;7.40;99.90
59007;DHT22;44792;52.760;6.726;2022-09-21T06:09:22;7.50;99.90
59007;DHT22;44792;52.760;6.726;2022-09-21T06:11:50;7.60;99.90
59007;DHT22;44792;52.760;6.726;2022-09-21T06:14:15;7.60;99.90
59007;DHT22;44792;52.760;6.726;2022-09-21T06:16:42;7.70;99.90
59007;DHT22;44792;52.760;6.726;2022-09-21T06:19:13;7.80;99.90
59007;DHT22;44792;52.760;6.726;2022-09-21T06:21:39;7.60;99.90
59007;DHT22;44792;52.760;6.726;2022-09-21T06:24:04;7.70;99.90
59007;DHT22;44792;52.760;6.726;2022-09-21T06:26:30;7.80;99.90
59007;DHT22;44792;52.760;6.726;2022-09-21T06:28:55;7.80;99.90
59007;DHT22;44792;52.760;6.726;2022-09-21T06:31:21;7.70;99.90
59007;DHT22;44792;52.760;6.726;2022-09-21T06:33:47;7.80;99.90
59007;DHT22;44792;52.760;6.726;2022-09-21T06:36:13;7.80;99.90
59007;DHT22;44792;52.760;6.726;2022-09-21T06:38:38;7.80;99.90
59007;DHT22;44792;52.760;6.726;2022-09-21T06:41:04;7.80;99.90
59007;DHT22;44792;52.760;6.726;2022-09-21T06:43:30;8.00;99.90
59007;DHT22;44792;52.760;6.726;2022-09-21T06:45:58;8.10;99.90
59007;DHT22;44792;52.760;6.726;2022-09-21T06:48:25;8.10;99.90
59007;DHT22;44792;52.760;6.726;2022-09-21T06:50:56;8.20;99.90
59007;DHT22;44792;52.760;6.726;2022-09-21T06:53:22;8.20;99.90
59007;DHT22;44792;52.760;6.726;2022-09-21T06:55:47;8.30;99.90
59007;DHT22;44792;52.760;6.726;2022-09-21T06:58:13;8.40;99.90
59007;DHT22;44792;52.760;6.726;2022-09-21T07:00:38;8.40;99.90
59007;DHT22;44792;52.760;6.726;2022-09-21T07:03:04;8.40;99.90
59007;DHT22;44792;52.760;6.726;2022-09-21T07:05:31;8.50;99.90
59007;DHT22;44792;52.760;6.726;2022-09-21T07:07:58;8.60;99.90
59007;DHT22;44792;52.760;6.726;2022-09-21T07:10:24;8.70;99.90
59007;DHT22;44792;52.760;6.726;2022-09-21T07:12:50;8.80;99.90
59007;DHT22;44792;52.760;6.726;2022-09-21T07:15:17;8.80;99.90
59007;DHT22;44792;52.760;6.726;2022-09-21T07:17:43;8.90;99.90
59007;DHT22;44792;52.760;6.726;2022-09-21T07:20:09;9.00;99.90
59007;DHT22;44792;52.760;6.726;2022-09-21T07:22:35;9.00;99.90
59007;DHT22;44792;52.760;6.726;2022-09-21T07:25:02;9.10;99.90
59007;DHT22;44792;52.760;6.726;2022-09-21T07:27:29;9.20;99.90
59007;DHT22;44792;52.760;6.726;2022-09-21T07:29:55;9.30;99.90
59007;DHT22;44792;52.760;6.726;2022-09-21T07:32:21;9.30;99.90
59007;DHT22;44792;52.760;6.726;2022-09-21T07:34:46;9.40;99.90
59007;DHT22;44792;52.760;6.726;2022-09-21T07:37:13;9.50;99.90
59007;DHT22;44792;52.760;6.726;2022-09-21T07:39:38;9.50;99.90
59007;DHT22;44792;52.760;6.726;2022-09-21T07:42:05;9.60;99.90
59007;DHT22;44792;52.760;6.726;2022-09-21T07:44:31;9.70;99.90
59007;DHT22;44792;52.760;6.726;2022-09-21T07:46:56;9.80;99.90
59007;DHT22;44792;52.760;6.726;2022-09-21T07:49:22;9.90;99.90
59007;DHT22;44792;52.760;6.726;2022-09-21T07:51:47;9.90;99.90
59007;DHT22;44792;52.760;6.726;2022-09-21T07:54:13;10.00;99.90
59007;DHT22;44792;52.760;6.726;2022-09-21T07:56:40;10.00;99.90
59007;DHT22;44792;52.760;6.726;2022-09-21T07:59:07;10.10;99.90
59007;DHT22;44792;52.760;6.726;2022-09-21T08:01:38;10.20;99.90
59007;DHT22;44792;52.760;6.726;2022-09-21T08:04:05;10.30;99.90
59007;DHT22;44792;52.760;6.726;2022-09-21T08:06:32;10.40;99.90
59007;DHT22;44792;52.760;6.726;2022-09-21T08:09:01;10.50;99.90
59007;DHT22;44792;52.760;6.726;2022-09-21T08:11:29;10.50;99.90
59007;DHT22;44792;52.760;6.726;2022-09-21T08:13:57;10.60;99.90
59007;DHT22;44792;52.760;6.726;2022-09-21T08:16:24;10.70;99.90
59007;DHT22;44792;52.760;6.726;2022-09-21T08:18:50;10.70;99.90
59007;DHT22;44792;52.760;6.726;2022-09-21T08:21:16;10.80;99.90
59007;DHT22;44792;52.760;6.726;2022-09-21T08:23:41;10.90;99.90
59007;DHT22;44792;52.760;6.726;2022-09-21T08:26:10;10.90;99.90
59007;DHT22;44792;52.760;6.726;2022-09-21T08:28:37;10.90;99.90
59007;DHT22;44792;52.760;6.726;2022-09-21T08:31:05;11.00;99.90
59007;DHT22;44792;52.760;6.726;2022-09-21T08:33:33;10.90;99.90
59007;DHT22;44792;52.760;6.726;2022-09-21T08:35:59;11.00;99.90
59007;DHT22;44792;52.760;6.726;2022-09-21T08:38:26;11.00;99.90
59007;DHT22;44792;52.760;6.726;2022-09-21T08:40:52;11.00;99.90
59007;DHT22;44792;52.760;6.726;2022-09-21T08:43:40;11.10;99.90
59007;DHT22;44792;52.760;6.726;2022-09-21T08:46:10;11.10;99.90
59007;DHT22;44792;52.760;6.726;2022-09-21T08:48:53;11.10;99.90
59007;DHT22;44792;52.760;6.726;2022-09-21T08:51:23;11.30;99.90
59007;DHT22;44792;52.760;6.726;2022-09-21T08:53:54;11.40;99.90
59007;DHT22;44792;52.760;6.726;2022-09-21T08:56:22;11.40;99.90
59007;DHT22;44792;52.760;6.726;2022-09-21T08:58:48;11.50;99.90
59007;DHT22;44792;52.760;6.726;2022-09-21T09:04:22;11.60;99.90
59007;DHT22;44792;52.760;6.726;2022-09-21T09:20:18;11.90;99.90
59007;DHT22;44792;52.760;6.726;2022-09-21T09:25:41;12.30;99.90
59007;DHT22;44792;52.760;6.726;2022-09-21T09:28:20;12.30;99.90
59007;DHT22;44792;52.760;6.726;2022-09-21T09:30:50;12.30;99.90
59007;DHT22;44792;52.760;6.726;2022-09-21T09:33:23;12.30;99.90
59007;DHT22;44792;52.760;6.726;2022-09-21T09:35:59;12.30;99.90
59007;DHT22;44792;52.760;6.726;2022-09-21T09:38:31;12.40;99.90
59007;DHT22;44792;52.760;6.726;2022-09-21T09:47:08;12.80;99.90
59007;DHT22;44792;52.760;6.726;2022-09-21T09:52:21;12.80;99.90
59007;DHT22;44792;52.760;6.726;2022-09-21T09:54:46;12.80;99.90
59007;DHT22;44792;52.760;6.726;2022-09-21T09:57:13;12.80;99.90
59007;DHT22;44792;52.760;6.726;2022-09-21T09:59:47;12.90;99.90
59007;DHT22;44792;52.760;6.726;2022-09-21T10:02:21;12.90;99.90
59007;DHT22;44792;52.760;6.726;2022-09-21T10:05:01;12.90;99.90
59007;DHT22;44792;52.760;6.726;2022-09-21T10:07:34;13.10;99.90
59007;DHT22;44792;52.760;6.726;2022-09-21T10:09:59;13.50;99.90
59007;DHT22;44792;52.760;6.726;2022-09-21T10:12:25;13.60;99.90
59007;DHT22;44792;52.760;6.726;2022-09-21T10:14:53;13.70;99.90
59007;DHT22;44792;52.760;6.726;2022-09-21T10:17:23;13.80;99.90
59007;DHT22;44792;52.760;6.726;2022-09-21T10:20:02;14.00;99.90
59007;DHT22;44792;52.760;6.726;2022-09-21T10:22:28;13.90;99.90
59007;DHT22;44792;52.760;6.726;2022-09-21T10:24:57;13.90;99.90
59007;DHT22;44792;52.760;6.726;2022-09-21T10:27:34;14.10;99.90
59007;DHT22;44792;52.760;6.726;2022-09-21T10:30:01;14.00;99.90
59007;DHT22;44792;52.760;6.726;2022-09-21T10:32:27;14.00;99.90
59007;DHT22;44792;52.760;6.726;2022-09-21T10:37:37;14.30;99.90
59007;DHT22;44792;52.760;6.726;2022-09-21T10:42:51;14.50;99.90
59007;DHT22;44792;52.760;6.726;2022-09-21T10:45:20;14.40;99.90
59007;DHT22;44792;52.760;6.726;2022-09-21T10:58:10;14.40;99.90
59007;DHT22;44792;52.760;6.726;2022-09-21T11:00:42;14.40;99.90
59007;DHT22;44792;52.760;6.726;2022-09-21T11:06:20;14.60;99.90
59007;DHT22;44792;52.760;6.726;2022-09-21T11:11:49;14.60;99.90
59007;DHT22;44792;52.760;6.726;2022-09-21T11:17:00;14.60;99.90
59007;DHT22;44792;52.760;6.726;2022-09-21T11:22:14;15.00;99.90
59007;DHT22;44792;52.760;6.726;2022-09-21T11:27:44;15.00;99.90
59007;DHT22;44792;52.760;6.726;2022-09-21T11:30:16;15.00;99.90
59007;DHT22;44792;52.760;6.726;2022-09-21T11:35:50;15.00;99.90
59007;DHT22;44792;52.760;6.726;2022-09-21T11:46:55;15.10;99.90
59007;DHT22;44792;52.760;6.726;2022-09-21T11:49:32;15.10;99.90
59007;DHT22;44792;52.760;6.726;2022-09-21T11:52:24;15.10;99.90
59007;DHT22;44792;52.760;6.726;2022-09-21T11:57:55;15.30;99.90
59007;DHT22;44792;52.760;6.726;2022-09-21T12:00:23;15.30;99.90
59007;DHT22;44792;52.760;6.726;2022-09-21T12:03:13;15.30;99.90
59007;DHT22;44792;52.760;6.726;2022-09-21T12:11:40;15.50;99.90
59007;DHT22;44792;52.760;6.726;2022-09-21T12:19:45;15.50;99.90
59007;DHT22;44792;52.760;6.726;2022-09-21T12:22:34;15.50;99.90
59007;DHT22;44792;52.760;6.726;2022-09-21T12:30:13;15.60;99.90
59007;DHT22;44792;52.760;6.726;2022-09-21T12:33:08;15.50;99.90
59007;DHT22;44792;52.760;6.726;2022-09-21T12:35:43;15.50;99.90
59007;DHT22;44792;52.760;6.726;2022-09-21T12:38:25;15.50;99.90
59007;DHT22;44792;52.760;6.726;2022-09-21T12:46:19;15.50;99.90
59007;DHT22;44792;52.760;6.726;2022-09-21T12:48:45;15.50;99.90
59007;DHT22;44792;52.760;6.726;2022-09-21T12:53:46;15.60;99.90
59007;DHT22;44792;52.760;6.726;2022-09-21T13:02:28;15.60;99.90
59007;DHT22;44792;52.760;6.726;2022-09-21T13:05:06;15.70;99.90
59007;DHT22;44792;52.760;6.726;2022-09-21T13:08:05;15.70;99.90
59007;DHT22;44792;52.760;6.726;2022-09-21T13:16:05;15.80;99.90
59007;DHT22;44792;52.760;6.726;2022-09-21T13:18:33;15.80;99.90
59007;DHT22;44792;52.760;6.726;2022-09-21T13:21:01;15.90;99.90
59007;DHT22;44792;52.760;6.726;2022-09-21T13:23:38;16.00;99.90
59007;DHT22;44792;52.760;6.726;2022-09-21T13:26:11;16.10;99.90
59007;DHT22;44792;52.760;6.726;2022-09-21T13:31:36;16.10;99.90
59007;DHT22;44792;52.760;6.726;2022-09-21T13:34:15;16.30;99.90
59007;DHT22;44792;52.760;6.726;2022-09-21T13:36:44;16.30;99.90
59007;DHT22;44792;52.760;6.726;2022-09-21T13:39:16;16.40;99.90
59007;DHT22;44792;52.760;6.726;2022-09-21T13:41:42;16.40;99.90
59007;DHT22;44792;52.760;6.726;2022-09-21T13:44:40;16.30;99.90
59007;DHT22;44792;52.760;6.726;2022-09-21T13:47:07;16.30;99.90
59007;DHT22;44792;52.760;6.726;2022-09-21T13:49:43;16.50;99.90
59007;DHT22;44792;52.760;6.726;2022-09-21T13:54:49;16.40;99.90
59007;DHT22;44792;52.760;6.726;2022-09-21T13:57:35;16.50;99.90
59007;DHT22;44792;52.760;6.726;2022-09-21T14:02:37;16.50;99.90
59007;DHT22;44792;52.760;6.726;2022-09-21T14:05:21;16.60;99.90
59007;DHT22;44792;52.760;6.726;2022-09-21T14:08:36;16.60;99.90
59007;DHT22;44792;52.760;6.726;2022-09-21T14:10:55;16.60;99.90
59007;DHT22;44792;52.760;6.726;2022-09-21T14:15:51;16.70;99.90
59007;DHT22;44792;52.760;6.726;2022-09-21T14:18:20;16.60;99.90
59007;DHT22;44792;52.760;6.726;2022-09-21T14:23:32;16.70;99.90
59007;DHT22;44792;52.760;6.726;2022-09-21T14:26:01;16.60;99.90
59007;DHT22;44792;52.760;6.726;2022-09-21T14:28:45;16.60;99.90
59007;DHT22;44792;52.760;6.726;2022-09-21T14:31:16;16.60;99.90
59007;DHT22;44792;52.760;6.726;2022-09-21T14:33:49;16.70;99.60
59007;DHT22;44792;52.760;6.726;2022-09-21T14:36:19;16.60;99.90
59007;DHT22;44792;52.760;6.726;2022-09-21T14:38:51;16.60;98.60
59007;DHT22;44792;52.760;6.726;2022-09-21T14:41:22;16.60;99.90
59007;DHT22;44792;52.760;6.726;2022-09-21T14:43:50;16.60;99.90
59007;DHT22;44792;52.760;6.726;2022-09-21T14:46:23;16.60;99.90
59007;DHT22;44792;52.760;6.726;2022-09-21T14:54:50;16.50;98.60
59007;DHT22;44792;52.760;6.726;2022-09-21T14:57:44;16.50;98.30
59007;DHT22;44792;52.760;6.726;2022-09-21T15:00:21;16.40;98.40
59007;DHT22;44792;52.760;6.726;2022-09-21T15:03:21;16.50;99.90
59007;DHT22;44792;52.760;6.726;2022-09-21T15:06:09;16.60;99.90
59007;DHT22;44792;52.760;6.726;2022-09-21T15:12:13;16.60;99.90
59007;DHT22;44792;52.760;6.726;2022-09-21T15:14:47;16.60;99.90
59007;DHT22;44792;52.760;6.726;2022-09-21T15:17:28;16.60;99.90
59007;DHT22;44792;52.760;6.726;2022-09-21T15:19:58;16.60;99.90
59007;DHT22;44792;52.760;6.726;2022-09-21T15:22:25;16.60;99.90
59007;DHT22;44792;52.760;6.726;2022-09-21T15:24:53;16.60;99.90
59007;DHT22;44792;52.760;6.726;2022-09-21T15:27:21;16.60;99.90
59007;DHT22;44792;52.760;6.726;2022-09-21T15:29:53;16.60;99.90
59007;DHT22;44792;52.760;6.726;2022-09-21T15:35:01;16.60;99.90
59007;DHT22;44792;52.760;6.726;2022-09-21T15:37:28;16.70;99.90
59007;DHT22;44792;52.760;6.726;2022-09-21T15:40:00;16.60;99.90
59007;DHT22;44792;52.760;6.726;2022-09-21T15:42:26;16.60;99.90
59007;DHT22;44792;52.760;6.726;2022-09-21T15:45:14;16.60;99.90
59007;DHT22;44792;52.760;6.726;2022-09-21T15:47:40;16.60;99.90
59007;DHT22;44792;52.760;6.726;2022-09-21T15:50:15;16.60;99.90
59007;DHT22;44792;52.760;6.726;2022-09-21T15:52:46;16.70;99.90
59007;DHT22;44792;52.760;6.726;2022-09-21T15:55:17;16.60;99.90
59007;DHT22;44792;52.760;6.726;2022-09-21T15:57:46;16.60;99.90
59007;DHT22;44792;52.760;6.726;2022-09-21T16:02:39;16.60;99.90
59007;DHT22;44792;52.760;6.726;2022-09-21T16:05:11;16.60;99.90
59007;DHT22;44792;52.760;6.726;2022-09-21T16:07:40;16.50;99.90
59007;DHT22;44792;52.760;6.726;2022-09-21T16:13:01;16.50;99.90
59007;DHT22;44792;52.760;6.726;2022-09-21T16:16:01;16.50;99.90
59007;DHT22;44792;52.760;6.726;2022-09-21T16:18:47;16.40;99.90
59007;DHT22;44792;52.760;6.726;2022-09-21T16:21:19;16.40;99.90
59007;DHT22;44792;52.760;6.726;2022-09-21T16:23:49;16.30;99.90
59007;DHT22;44792;52.760;6.726;2022-09-21T16:26:25;16.30;99.90
59007;DHT22;44792;52.760;6.726;2022-09-21T16:29:22;16.30;99.90
59007;DHT22;44792;52.760;6.726;2022-09-21T16:31:49;16.20;99.90
59007;DHT22;44792;52.760;6.726;2022-09-21T16:34:21;16.30;99.90
59007;DHT22;44792;52.760;6.726;2022-09-21T16:36:51;16.60;99.90
59007;DHT22;44792;52.760;6.726;2022-09-21T16:39:18;16.40;99.90
59007;DHT22;44792;52.760;6.726;2022-09-21T16:41:54;16.20;99.90
59007;DHT22;44792;52.760;6.726;2022-09-21T16:44:24;16.20;99.90
59007;DHT22;44792;52.760;6.726;2022-09-21T16:46:53;16.00;99.90
59007;DHT22;44792;52.760;6.726;2022-09-21T16:49:20;16.00;99.90
59007;DHT22;44792;52.760;6.726;2022-09-21T16:51:47;15.90;99.90
59007;DHT22;44792;52.760;6.726;2022-09-21T16:54:17;15.80;99.90
59007;DHT22;44792;52.760;6.726;2022-09-21T16:56:43;15.70;99.90
59007;DHT22;44792;52.760;6.726;2022-09-21T16:59:14;15.70;99.90
59007;DHT22;44792;52.760;6.726;2022-09-21T17:01:51;15.60;99.90
59007;DHT22;44792;52.760;6.726;2022-09-21T17:04:21;15.50;99.90
59007;DHT22;44792;52.760;6.726;2022-09-21T17:06:50;15.40;99.90
59007;DHT22;44792;52.760;6.726;2022-09-21T17:09:34;15.30;99.90
59007;DHT22;44792;52.760;6.726;2022-09-21T17:12:03;15.20;99.90
59007;DHT22;44792;52.760;6.726;2022-09-21T17:14:31;15.10;99.90
59007;DHT22;44792;52.760;6.726;2022-09-21T17:17:23;15.10;99.90
59007;DHT22;44792;52.760;6.726;2022-09-21T17:19:52;15.00;99.90
59007;DHT22;44792;52.760;6.726;2022-09-21T17:22:18;14.90;99.90
59007;DHT22;44792;52.760;6.726;2022-09-21T17:24:49;14.80;99.90
59007;DHT22;44792;52.760;6.726;2022-09-21T17:27:15;14.70;99.90
59007;DHT22;44792;52.760;6.726;2022-09-21T17:29:45;14.70;99.90
59007;DHT22;44792;52.760;6.726;2022-09-21T17:32:15;14.60;99.90
59007;DHT22;44792;52.760;6.726;2022-09-21T17:34:44;14.50;99.90
59007;DHT22;44792;52.760;6.726;2022-09-21T17:37:10;14.40;99.90
59007;DHT22;44792;52.760;6.726;2022-09-21T17:39:36;14.30;99.90
59007;DHT22;44792;52.760;6.726;2022-09-21T17:42:08;14.20;99.90
59007;DHT22;44792;52.760;6.726;2022-09-21T17:45:03;14.20;99.90
59007;DHT22;44792;52.760;6.726;2022-09-21T17:47:32;14.10;99.90
59007;DHT22;44792;52.760;6.726;2022-09-21T17:52:38;14.00;99.90
59007;DHT22;44792;52.760;6.726;2022-09-21T17:55:22;13.90;99.90
59007;DHT22;44792;52.760;6.726;2022-09-21T18:00:44;13.70;99.90
59007;DHT22;44792;52.760;6.726;2022-09-21T18:03:20;13.70;99.90
59007;DHT22;44792;52.760;6.726;2022-09-21T18:05:48;13.60;99.90
59007;DHT22;44792;52.760;6.726;2022-09-21T18:08:15;13.50;99.90
59007;DHT22;44792;52.760;6.726;2022-09-21T18:10:46;13.50;99.90
59007;DHT22;44792;52.760;6.726;2022-09-21T18:18:49;13.30;99.90
59007;DHT22;44792;52.760;6.726;2022-09-21T18:21:18;13.20;99.90
59007;DHT22;44792;52.760;6.726;2022-09-21T18:26:32;13.10;99.90
59007;DHT22;44792;52.760;6.726;2022-09-21T18:28:58;13.10;99.90
59007;DHT22;44792;52.760;6.726;2022-09-21T18:31:36;13.00;99.90
59007;DHT22;44792;52.760;6.726;2022-09-21T18:34:29;12.90;99.90
59007;DHT22;44792;52.760;6.726;2022-09-21T18:39:52;12.80;99.90
59007;DHT22;44792;52.760;6.726;2022-09-21T18:42:24;12.80;99.90
59007;DHT22;44792;52.760;6.726;2022-09-21T18:45:02;12.70;99.90
59007;DHT22;44792;52.760;6.726;2022-09-21T18:50:30;12.60;99.90
59007;DHT22;44792;52.760;6.726;2022-09-21T18:53:19;12.60;99.90
59007;DHT22;44792;52.760;6.726;2022-09-21T18:55:48;12.50;99.90